Time;durP1;ratioP1;P1;durP2;ratioP2;P2;SDS_P1;SDS_P2;PMS_P1;PMS_P2;Temp;Humidity;BMP_temperature;BMP_pressure;BME280_temperature;BME280_humidity;BME280_pressure;Samples;Min_cycle;Max_cycle;Signal;HPM_P1;HPM_P2
2023/10/24 00:01:36;;;;;;;19.13;13.55;;;10.10;99.90;;;;;;5029596;28;20076;-83
2023/10/24 00:04:01;;;;;;;20.52;13.60;;;10.20;99.90;;;;;;5047588;28;20037;-83
2023/10/24 00:06:27;;;;;;;18.85;13.52;;;10.20;99.90;;;;;;5046277;28;20095;-83
2023/10/24 00:08:52;;;;;;;20.27;13.52;;;10.20;99.90;;;;;;5047627;28;20041;-83
2023/10/24 00:11:18;;;;;;;20.13;13.45;;;10.20;99.90;;;;;;5047863;28;20521;-83
2023/10/24 00:13:43;;;;;;;17.98;12.80;;;10.20;99.90;;;;;;5033624;28;20048;-83
2023/10/24 00:16:09;;;;;;;20.10;14.25;;;10.20;99.90;;;;;;5051085;28;20398;-83
2023/10/24 00:18:35;;;;;;;21.42;13.30;;;10.20;99.90;;;;;;5051712;28;20097;-83
2023/10/24 00:21:00;;;;;;;20.42;12.73;;;10.20;99.90;;;;;;5051492;28;20059;-82
2023/10/24 00:23:29;;;;;;;20.05;13.55;;;10.20;99.90;;;;;;5033332;28;20517;-82
2023/10/24 00:25:54;;;;;;;20.27;13.70;;;10.20;99.90;;;;;;5050874;28;20045;-81
2023/10/24 00:28:20;;;;;;;23.17;13.57;;;10.20;99.90;;;;;;5051268;28;20086;-81
2023/10/24 00:30:45;;;;;;;18.63;13.35;;;10.20;99.90;;;;;;5049989;28;20037;-81
2023/10/24 00:33:11;;;;;;;21.27;13.90;;;10.20;99.90;;;;;;5049545;28;20491;-81
2023/10/24 00:35:37;;;;;;;21.02;13.63;;;10.20;99.90;;;;;;5033909;28;20052;-82
2023/10/24 00:38:02;;;;;;;20.33;13.25;;;10.20;99.90;;;;;;5016857;28;21457;-82
2023/10/24 00:40:28;;;;;;;18.17;12.93;;;10.20;99.90;;;;;;5051231;28;20120;-82
2023/10/24 00:42:53;;;;;;;22.52;13.93;;;10.20;99.90;;;;;;5050618;28;20048;-82
2023/10/24 00:45:19;;;;;;;20.98;13.50;;;10.20;99.90;;;;;;5050810;28;20094;-81
2023/10/24 00:47:45;;;;;;;19.55;13.80;;;10.20;99.90;;;;;;5016185;28;20040;-81
2023/10/24 00:50:12;;;;;;;22.35;13.35;;;10.20;99.90;;;;;;5051069;28;20053;-81
2023/10/24 00:52:39;;;;;;;21.30;14.32;;;10.30;99.90;;;;;;5050459;28;20187;-81
2023/10/24 00:55:07;;;;;;;19.80;13.73;;;10.30;99.90;;;;;;5050466;28;20120;-81
2023/10/24 00:57:33;;;;;;;22.85;14.05;;;10.30;99.90;;;;;;5050688;28;20067;-81
2023/10/24 00:59:59;;;;;;;18.02;13.18;;;10.20;99.90;;;;;;5032952;28;20049;-81
2023/10/24 01:02:26;;;;;;;20.38;13.90;;;10.20;99.90;;;;;;5032406;28;20057;-82
2023/10/24 01:04:54;;;;;;;18.85;13.65;;;10.30;99.90;;;;;;5050360;28;20044;-81
2023/10/24 01:07:20;;;;;;;20.30;13.23;;;10.30;99.90;;;;;;5032090;28;20049;-82
2023/10/24 01:09:46;;;;;;;21.05;12.75;;;10.30;99.90;;;;;;5032951;28;20045;-82
2023/10/24 01:12:11;;;;;;;19.75;13.57;;;10.30;99.90;;;;;;5032260;28;20048;-81
2023/10/24 01:14:38;;;;;;;19.83;13.13;;;10.30;99.90;;;;;;5050077;28;20053;-82
2023/10/24 01:17:11;;;;;;;21.58;13.60;;;10.30;99.90;;;;;;5032221;28;20049;-82
2023/10/24 01:19:37;;;;;;;18.00;12.63;;;10.30;99.90;;;;;;5048531;28;20068;-82
2023/10/24 01:22:02;;;;;;;18.88;13.77;;;10.40;99.90;;;;;;5049342;28;20061;-82
2023/10/24 01:24:29;;;;;;;19.63;13.32;;;10.30;99.90;;;;;;5048129;28;20076;-82
2023/10/24 01:27:10;;;;;;;20.15;12.60;;;10.40;99.90;;;;;;4982379;28;20045;-81
2023/10/24 01:29:36;;;;;;;18.33;12.98;;;10.40;99.90;;;;;;5020559;28;20088;-82
2023/10/24 01:32:01;;;;;;;19.95;13.57;;;10.40;99.90;;;;;;5049571;28;20076;-81
2023/10/24 01:34:27;;;;;;;21.65;13.93;;;10.40;99.90;;;;;;5049797;28;20053;-82
2023/10/24 01:36:53;;;;;;;21.65;13.38;;;10.40;99.90;;;;;;5029015;28;20052;-82
2023/10/24 01:39:18;;;;;;;17.25;12.75;;;10.70;99.90;;;;;;5029940;28;20169;-82
2023/10/24 01:41:44;;;;;;;19.67;13.38;;;10.40;99.90;;;;;;5011991;28;20057;-83
2023/10/24 01:44:09;;;;;;;21.77;13.55;;;10.50;99.90;;;;;;5012547;28;20045;-82
2023/10/24 01:46:35;;;;;;;20.25;13.10;;;10.50;99.90;;;;;;5029816;28;20121;-82
2023/10/24 01:49:00;;;;;;;18.58;12.68;;;10.90;99.90;;;;;;5040462;28;20094;-83
2023/10/24 01:51:27;;;;;;;20.38;13.02;;;10.50;99.90;;;;;;5031042;28;20128;-82
2023/10/24 01:53:53;;;;;;;17.77;12.77;;;10.50;99.90;;;;;;5049791;28;20067;-82
2023/10/24 01:56:19;;;;;;;17.67;12.13;;;10.50;99.90;;;;;;5031825;28;20037;-82
2023/10/24 01:58:44;;;;;;;20.00;12.60;;;10.50;99.90;;;;;;5031997;28;20041;-82
2023/10/24 02:01:10;;;;;;;19.42;12.05;;;10.50;99.90;;;;;;5032009;28;20053;-83
2023/10/24 02:03:36;;;;;;;17.77;12.23;;;10.80;99.90;;;;;;5031858;28;20080;-83
2023/10/24 02:06:01;;;;;;;16.73;12.27;;;10.60;99.90;;;;;;5031917;28;20514;-82
2023/10/24 02:08:27;;;;;;;16.75;11.60;;;10.50;99.90;;;;;;5048560;28;20442;-82
2023/10/24 02:10:52;;;;;;;19.27;11.70;;;10.60;99.90;;;;;;5049684;28;20048;-82
2023/10/24 02:13:18;;;;;;;17.30;11.20;;;10.50;99.90;;;;;;5014234;28;20074;-81
2023/10/24 02:15:44;;;;;;;17.33;11.65;;;10.60;99.90;;;;;;5031581;28;20092;-82
2023/10/24 02:18:09;;;;;;;16.60;11.35;;;10.60;99.90;;;;;;5048195;28;20159;-83
2023/10/24 02:20:37;;;;;;;19.20;12.00;;;10.60;99.90;;;;;;5048936;28;20082;-83
2023/10/24 02:23:03;;;;;;;18.58;11.07;;;10.60;99.90;;;;;;5029829;28;20057;-83
2023/10/24 02:25:28;;;;;;;18.25;11.45;;;10.60;99.90;;;;;;5030764;28;20486;-81
2023/10/24 02:27:55;;;;;;;20.27;11.98;;;10.70;99.90;;;;;;5037032;28;20053;-82
2023/10/24 02:30:21;;;;;;;17.92;12.38;;;10.70;99.90;;;;;;5043767;28;20564;-81
2023/10/24 02:32:49;;;;;;;20.70;13.13;;;10.70;99.90;;;;;;5049125;28;20056;-82
2023/10/24 02:35:15;;;;;;;17.98;11.90;;;10.70;99.90;;;;;;5029315;28;20040;-82
2023/10/24 02:37:40;;;;;;;18.00;12.35;;;10.70;99.90;;;;;;5047529;28;20048;-83
2023/10/24 02:40:08;;;;;;;19.98;12.73;;;10.70;99.90;;;;;;5048486;28;20123;-83
2023/10/24 02:42:34;;;;;;;19.20;12.70;;;10.70;99.90;;;;;;5030280;28;20045;-82
2023/10/24 02:45:00;;;;;;;21.15;12.52;;;10.80;99.90;;;;;;5047526;28;20049;-83
2023/10/24 02:47:28;;;;;;;19.23;12.55;;;10.70;99.90;;;;;;5029850;28;20052;-82
2023/10/24 02:49:54;;;;;;;20.15;13.35;;;10.80;99.90;;;;;;5030831;28;20056;-83
2023/10/24 02:52:23;;;;;;;20.23;12.65;;;10.70;99.90;;;;;;5029541;28;20091;-83
2023/10/24 02:54:49;;;;;;;19.85;13.30;;;10.80;99.90;;;;;;5048162;28;20157;-82
2023/10/24 02:57:16;;;;;;;21.30;13.57;;;10.80;99.90;;;;;;5030670;28;21082;-82
2023/10/24 02:59:41;;;;;;;20.48;13.93;;;10.80;99.90;;;;;;5030058;28;20056;-83
2023/10/24 03:02:07;;;;;;;22.23;13.70;;;10.80;99.90;;;;;;5048054;28;20037;-82
2023/10/24 03:04:35;;;;;;;20.83;14.65;;;10.70;99.90;;;;;;5047801;28;20049;-83
2023/10/24 03:07:00;;;;;;;22.90;14.10;;;10.80;99.90;;;;;;5046211;28;20148;-83
2023/10/24 03:09:26;;;;;;;21.45;14.35;;;11.10;99.90;;;;;;5030736;28;20040;-82
2023/10/24 03:11:51;;;;;;;24.92;14.65;;;10.80;99.90;;;;;;5047585;28;20411;-84
2023/10/24 03:14:17;;;;;;;20.67;14.50;;;10.70;99.90;;;;;;5047612;28;20155;-83
2023/10/24 03:16:43;;;;;;;23.27;14.35;;;10.80;99.90;;;;;;5047611;28;20053;-83
2023/10/24 03:19:09;;;;;;;20.38;13.77;;;10.80;99.90;;;;;;5046797;28;20067;-83
2023/10/24 03:21:34;;;;;;;21.58;15.13;;;10.80;99.90;;;;;;5046510;28;20060;-83
2023/10/24 03:24:00;;;;;;;21.73;14.48;;;10.80;99.90;;;;;;5013316;28;20060;-81
2023/10/24 03:26:25;;;;;;;20.13;14.88;;;10.80;99.90;;;;;;5047231;28;20037;-83
2023/10/24 03:28:51;;;;;;;22.77;14.63;;;11.00;99.90;;;;;;5029701;28;20360;-82
2023/10/24 03:31:16;;;;;;;21.88;14.38;;;10.90;99.90;;;;;;5029302;28;20052;-82
2023/10/24 03:33:42;;;;;;;24.25;15.70;;;10.90;99.90;;;;;;5030624;28;20049;-82
2023/10/24 03:36:14;;;;;;;25.00;14.18;;;10.90;99.90;;;;;;5029803;28;20589;-82
2023/10/24 03:38:40;;;;;;;25.55;15.30;;;10.90;99.90;;;;;;5029701;28;20060;-82
2023/10/24 03:41:07;;;;;;;24.33;15.32;;;10.90;99.90;;;;;;5047109;28;20045;-82
2023/10/24 03:43:34;;;;;;;23.60;15.60;;;10.90;99.90;;;;;;5047352;28;20073;-82
2023/10/24 03:46:07;;;;;;;22.15;15.57;;;10.90;99.90;;;;;;5046492;28;20041;-83
2023/10/24 03:48:33;;;;;;;20.00;14.98;;;10.90;99.90;;;;;;5028013;28;20045;-83
2023/10/24 03:51:00;;;;;;;26.27;15.40;;;11.00;99.90;;;;;;5017387;28;20675;-82
2023/10/24 03:53:26;;;;;;;22.20;15.70;;;11.00;99.90;;;;;;5027996;28;20514;-83
2023/10/24 03:55:59;;;;;;;25.92;16.10;;;11.00;99.90;;;;;;5046377;28;20043;-83
2023/10/24 03:58:25;;;;;;;27.90;16.80;;;10.90;99.90;;;;;;5029719;28;20116;-84
2023/10/24 04:00:51;;;;;;;24.13;16.30;;;11.00;99.90;;;;;;5029877;28;20637;-83
2023/10/24 04:03:17;;;;;;;25.48;16.00;;;11.10;99.90;;;;;;5044586;28;20107;-83
2023/10/24 04:05:42;;;;;;;26.42;16.50;;;11.00;99.90;;;;;;5047557;28;20049;-83
2023/10/24 04:08:09;;;;;;;21.83;16.58;;;11.00;99.90;;;;;;5047430;28;20049;-83
2023/10/24 04:10:34;;;;;;;25.35;16.77;;;11.00;99.90;;;;;;5029301;28;20056;-83
2023/10/24 04:13:00;;;;;;;21.98;15.50;;;11.10;99.90;;;;;;5029559;28;20055;-83
2023/10/24 04:15:27;;;;;;;24.98;16.10;;;11.10;99.90;;;;;;5044587;28;20085;-83
2023/10/24 04:17:53;;;;;;;22.60;15.85;;;11.10;99.90;;;;;;5046382;28;20059;-83
2023/10/24 04:20:19;;;;;;;21.95;15.32;;;11.10;99.90;;;;;;5046087;28;20094;-82
2023/10/24 04:22:47;;;;;;;22.75;15.68;;;11.10;99.90;;;;;;5029306;28;20084;-83
2023/10/24 04:25:12;;;;;;;21.73;14.95;;;11.10;99.90;;;;;;5037268;28;20056;-83
2023/10/24 04:27:38;;;;;;;18.90;14.60;;;11.20;99.90;;;;;;5029518;28;20045;-83
2023/10/24 04:30:09;;;;;;;18.20;14.43;;;11.20;99.90;;;;;;5046511;28;20113;-83
2023/10/24 04:32:34;;;;;;;19.63;13.63;;;11.20;99.90;;;;;;5029317;28;20198;-83
2023/10/24 04:35:00;;;;;;;19.55;14.43;;;11.20;99.90;;;;;;5030010;28;20160;-84
2023/10/24 04:37:26;;;;;;;21.13;15.00;;;11.20;99.90;;;;;;5029151;28;20083;-83
2023/10/24 04:39:51;;;;;;;16.75;14.38;;;11.20;99.90;;;;;;5047279;28;20103;-83
2023/10/24 04:42:17;;;;;;;21.23;14.07;;;11.20;99.90;;;;;;5028510;28;20063;-83
2023/10/24 04:44:43;;;;;;;21.40;14.65;;;11.20;99.90;;;;;;5046925;28;20093;-83
2023/10/24 04:47:08;;;;;;;17.92;13.40;;;11.20;99.90;;;;;;5013233;28;20048;-83
2023/10/24 04:49:36;;;;;;;20.45;13.35;;;11.20;99.90;;;;;;5029530;28;20045;-84
2023/10/24 04:52:02;;;;;;;15.68;12.95;;;11.20;99.90;;;;;;5028170;28;20103;-83
2023/10/24 04:54:28;;;;;;;16.77;13.80;;;11.20;99.90;;;;;;5029139;28;20461;-82
2023/10/24 04:56:55;;;;;;;15.70;11.80;;;11.20;99.90;;;;;;5044048;28;20064;-83
2023/10/24 04:59:20;;;;;;;17.38;12.48;;;11.20;99.90;;;;;;5045938;28;20055;-84
2023/10/24 05:01:46;;;;;;;16.98;11.98;;;11.80;99.90;;;;;;5015965;28;20049;-84
2023/10/24 05:04:12;;;;;;;15.55;11.68;;;11.20;99.90;;;;;;5050402;28;20076;-83
2023/10/24 05:06:37;;;;;;;15.90;10.63;;;11.20;99.90;;;;;;5031613;28;20053;-83
2023/10/24 05:09:03;;;;;;;13.88;10.93;;;11.20;99.90;;;;;;5031947;28;20037;-84
2023/10/24 05:11:29;;;;;;;11.02;9.80;;;11.50;99.90;;;;;;5050767;28;20087;-84
2023/10/24 05:13:54;;;;;;;14.07;10.65;;;11.20;99.90;;;;;;5032878;28;20044;-84
2023/10/24 05:16:23;;;;;;;12.10;9.88;;;11.20;99.90;;;;;;5032251;28;20600;-84
2023/10/24 05:18:49;;;;;;;13.73;10.10;;;11.10;99.90;;;;;;5032238;28;20049;-83
2023/10/24 05:21:14;;;;;;;14.23;9.82;;;11.10;99.90;;;;;;5050125;28;20110;-84
2023/10/24 05:23:40;;;;;;;12.98;10.07;;;11.10;99.90;;;;;;5049742;28;20469;-83
2023/10/24 05:26:08;;;;;;;11.18;9.38;;;11.10;99.90;;;;;;5032124;28;20179;-83
2023/10/24 05:28:34;;;;;;;13.00;8.55;;;11.10;99.90;;;;;;5049982;28;20087;-84
2023/10/24 05:31:07;;;;;;;10.27;8.68;;;11.10;99.90;;;;;;5049982;28;20414;-84
2023/10/24 05:33:34;;;;;;;12.30;9.57;;;11.10;99.90;;;;;;5032023;28;20045;-83
2023/10/24 05:35:59;;;;;;;11.48;9.23;;;11.10;99.90;;;;;;5049917;28;20414;-83
2023/10/24 05:38:25;;;;;;;11.50;9.02;;;11.10;99.90;;;;;;5030583;28;20040;-83
2023/10/24 05:40:50;;;;;;;12.45;9.13;;;11.10;99.90;;;;;;5049870;28;20037;-85
2023/10/24 05:43:16;;;;;;;11.70;9.55;;;11.10;99.90;;;;;;5049952;28;20041;-83
2023/10/24 05:45:41;;;;;;;10.95;9.13;;;11.10;99.90;;;;;;5031975;28;20053;-82
2023/10/24 05:48:07;;;;;;;12.25;9.35;;;11.10;99.90;;;;;;5049184;28;20059;-82
2023/10/24 05:50:33;;;;;;;11.90;9.18;;;11.10;99.90;;;;;;5034962;28;20398;-82
2023/10/24 05:52:59;;;;;;;11.70;8.85;;;11.10;99.90;;;;;;5067860;28;20162;-82
2023/10/24 05:55:25;;;;;;;13.38;9.15;;;11.20;99.90;;;;;;5057179;28;20147;-84
2023/10/24 05:57:50;;;;;;;12.90;9.27;;;11.10;99.90;;;;;;5027281;28;20033;-82
2023/10/24 06:00:16;;;;;;;11.02;8.95;;;11.10;99.90;;;;;;5030664;28;20107;-83
2023/10/24 06:02:42;;;;;;;10.23;9.02;;;11.10;99.90;;;;;;5046702;28;20406;-83
2023/10/24 06:05:07;;;;;;;10.05;8.63;;;11.10;99.90;;;;;;5043832;28;20042;-82
2023/10/24 06:07:33;;;;;;;12.43;8.85;;;11.10;99.90;;;;;;5036071;28;20051;-84
2023/10/24 06:10:00;;;;;;;10.73;8.82;;;11.10;99.90;;;;;;5051185;28;20045;-83
2023/10/24 06:12:28;;;;;;;10.82;8.65;;;11.10;99.90;;;;;;5051296;28;20079;-84
2023/10/24 06:14:54;;;;;;;10.88;8.40;;;11.10;99.90;;;;;;5037501;28;20053;-83
2023/10/24 06:17:20;;;;;;;9.48;7.60;;;11.10;99.90;;;;;;5014130;28;20106;-84
2023/10/24 06:19:49;;;;;;;10.20;8.20;;;11.10;99.90;;;;;;5049124;28;20494;-84
2023/10/24 06:22:15;;;;;;;11.48;9.00;;;11.10;99.90;;;;;;5056665;28;20048;-83
2023/10/24 06:24:41;;;;;;;16.38;9.30;;;11.10;99.90;;;;;;5048679;28;20454;-83
2023/10/24 06:27:09;;;;;;;10.85;9.02;;;11.00;99.90;;;;;;5049180;28;20041;-83
2023/10/24 06:29:34;;;;;;;8.52;7.60;;;11.00;99.90;;;;;;5029882;28;20114;-84
2023/10/24 06:32:00;;;;;;;10.00;8.38;;;11.10;99.90;;;;;;5031075;28;20510;-86
2023/10/24 06:34:26;;;;;;;9.88;7.78;;;11.10;99.90;;;;;;5031118;28;20056;-85
2023/10/24 06:36:52;;;;;;;10.15;8.18;;;11.00;99.90;;;;;;5030709;28;20040;-86
2023/10/24 06:39:17;;;;;;;8.48;7.55;;;11.00;99.90;;;;;;5030861;28;20102;-84
2023/10/24 06:41:45;;;;;;;9.40;7.10;;;11.00;99.90;;;;;;5047139;28;20383;-85
2023/10/24 06:44:10;;;;;;;8.38;7.13;;;11.00;99.90;;;;;;5028974;28;20049;-84
2023/10/24 06:46:36;;;;;;;9.32;7.40;;;11.10;99.90;;;;;;5030550;28;20091;-84
2023/10/24 06:49:01;;;;;;;9.18;7.97;;;11.00;99.90;;;;;;5047787;28;20052;-84
2023/10/24 06:51:30;;;;;;;9.07;7.40;;;11.00;99.90;;;;;;5048190;28;20403;-84
2023/10/24 06:53:55;;;;;;;7.78;6.97;;;11.00;99.90;;;;;;5030532;28;20071;-84
2023/10/24 06:56:21;;;;;;;11.50;7.22;;;11.00;99.90;;;;;;5013732;28;20123;-84
2023/10/24 06:58:46;;;;;;;8.90;7.90;;;11.00;99.90;;;;;;5048154;28;20053;-85
2023/10/24 07:01:12;;;;;;;7.78;6.90;;;11.00;99.90;;;;;;5014517;28;20051;-84
2023/10/24 07:03:37;;;;;;;10.90;7.50;;;11.00;99.90;;;;;;5029816;28;20053;-84
2023/10/24 07:06:04;;;;;;;9.55;6.80;;;11.10;99.90;;;;;;5030149;28;20084;-83
2023/10/24 07:08:30;;;;;;;8.73;7.68;;;11.00;99.90;;;;;;5047426;28;20128;-84
2023/10/24 07:10:56;;;;;;;11.05;7.18;;;11.30;99.90;;;;;;5029921;28;20132;-84
2023/10/24 07:13:21;;;;;;;10.00;7.40;;;11.10;99.90;;;;;;5030686;28;20116;-85
2023/10/24 07:15:47;;;;;;;12.32;8.07;;;11.10;99.90;;;;;;5031033;28;20088;-83
2023/10/24 07:18:13;;;;;;;10.38;7.47;;;11.10;99.90;;;;;;5012627;28;20045;-84
2023/10/24 07:20:39;;;;;;;9.27;7.82;;;11.10;99.90;;;;;;5008108;28;20101;-83
2023/10/24 07:23:07;;;;;;;8.60;7.53;;;11.10;99.90;;;;;;5026583;28;20132;-83
2023/10/24 07:25:33;;;;;;;11.38;8.40;;;11.10;99.90;;;;;;5028074;28;20415;-83
2023/10/24 07:27:59;;;;;;;9.82;8.23;;;11.20;99.90;;;;;;5029420;28;20045;-84
2023/10/24 07:30:24;;;;;;;9.85;8.20;;;11.20;99.90;;;;;;5027903;28;20041;-84
2023/10/24 07:32:53;;;;;;;10.00;8.00;;;11.20;99.90;;;;;;5028482;28;20598;-83
2023/10/24 07:35:20;;;;;;;9.43;7.55;;;11.30;99.90;;;;;;5026993;28;20052;-83
2023/10/24 07:37:46;;;;;;;9.85;7.45;;;11.30;99.90;;;;;;5026688;28;20038;-83
2023/10/24 07:40:11;;;;;;;11.88;8.02;;;11.30;99.90;;;;;;5029165;28;20049;-85
2023/10/24 07:42:37;;;;;;;10.90;8.20;;;11.30;99.90;;;;;;5027826;28;20057;-83
2023/10/24 07:45:03;;;;;;;12.52;8.40;;;11.30;99.90;;;;;;5027301;28;20041;-82
2023/10/24 07:47:28;;;;;;;18.80;8.55;;;11.30;99.90;;;;;;5027071;28;20049;-84
2023/10/24 07:49:55;;;;;;;9.98;7.68;;;11.30;99.90;;;;;;5010925;28;20052;-83
2023/10/24 07:52:20;;;;;;;9.77;7.82;;;11.30;99.90;;;;;;5031610;28;20053;-83
2023/10/24 07:54:46;;;;;;;9.27;7.85;;;11.30;99.90;;;;;;5032318;28;20103;-82
2023/10/24 07:57:12;;;;;;;11.20;9.20;;;11.30;99.90;;;;;;5028108;28;20055;-83
2023/10/24 07:59:38;;;;;;;10.30;8.23;;;11.30;99.90;;;;;;5029906;28;20395;-83
2023/10/24 08:02:03;;;;;;;12.73;9.02;;;11.30;99.90;;;;;;5048353;28;20045;-83
2023/10/24 08:04:29;;;;;;;9.90;7.40;;;11.30;99.90;;;;;;5048379;28;20396;-83
2023/10/24 08:06:55;;;;;;;10.35;8.15;;;11.70;99.90;;;;;;5046565;28;20048;-82
2023/10/24 08:09:21;;;;;;;12.38;8.70;;;11.70;99.90;;;;;;5046977;28;20052;-85
2023/10/24 08:11:47;;;;;;;10.30;7.90;;;11.20;99.90;;;;;;5048990;28;20044;-85
2023/10/24 08:14:13;;;;;;;15.68;11.27;;;11.30;99.90;;;;;;5029379;28;20099;-83
2023/10/24 08:16:39;;;;;;;11.75;8.85;;;11.60;99.90;;;;;;5027406;28;20159;-84
2023/10/24 08:19:04;;;;;;;10.88;8.40;;;11.30;99.90;;;;;;5026597;28;20049;-83
2023/10/24 08:21:30;;;;;;;14.52;9.60;;;11.20;99.90;;;;;;5009536;28;20068;-85
2023/10/24 08:23:56;;;;;;;14.68;9.55;;;11.30;99.90;;;;;;5026296;28;20100;-83
2023/10/24 08:26:22;;;;;;;12.10;8.40;;;11.30;99.90;;;;;;5026864;28;20499;-86
2023/10/24 08:28:48;;;;;;;12.55;9.07;;;11.40;99.90;;;;;;5028678;28;20056;-84
2023/10/24 08:31:13;;;;;;;12.75;9.65;;;11.30;99.90;;;;;;5026204;28;20041;-84
2023/10/24 08:33:39;;;;;;;12.50;9.38;;;11.30;99.90;;;;;;5036732;28;20042;-84
2023/10/24 08:36:05;;;;;;;12.82;9.35;;;11.40;99.90;;;;;;5030123;28;20045;-84
2023/10/24 08:38:30;;;;;;;12.80;9.48;;;11.40;99.90;;;;;;5029711;28;20610;-85
2023/10/24 08:40:56;;;;;;;12.18;9.98;;;11.40;99.90;;;;;;5029829;28;20116;-85
2023/10/24 08:43:23;;;;;;;12.65;9.57;;;11.40;99.90;;;;;;5029582;28;20515;-85
2023/10/24 08:45:50;;;;;;;12.63;9.38;;;11.50;99.90;;;;;;5012611;28;20057;-85
2023/10/24 08:48:16;;;;;;;13.52;9.68;;;11.50;99.90;;;;;;5028609;28;20128;-85
2023/10/24 08:50:42;;;;;;;13.35;10.27;;;11.60;99.90;;;;;;5042009;28;20132;-84
2023/10/24 08:53:10;;;;;;;11.45;8.93;;;11.50;99.90;;;;;;5027550;28;20088;-85
2023/10/24 08:55:38;;;;;;;11.02;8.88;;;11.60;99.90;;;;;;5022301;28;20053;-85
2023/10/24 08:58:08;;;;;;;12.25;9.60;;;11.60;99.90;;;;;;5029773;28;20060;-85
2023/10/24 09:00:34;;;;;;;9.77;8.55;;;11.60;99.90;;;;;;5032088;28;20044;-84
2023/10/24 09:03:00;;;;;;;11.77;9.48;;;11.60;99.90;;;;;;5028697;28;20705;-84
2023/10/24 09:05:28;;;;;;;11.57;8.63;;;11.60;99.90;;;;;;5012458;28;20479;-86
2023/10/24 09:07:56;;;;;;;11.00;8.85;;;11.50;99.90;;;;;;5028697;28;20411;-85
2023/10/24 09:10:22;;;;;;;10.25;8.80;;;11.50;99.90;;;;;;5008788;28;20048;-86
2023/10/24 09:12:53;;;;;;;11.77;8.68;;;11.50;99.90;;;;;;5025184;28;20049;-85
2023/10/24 09:15:19;;;;;;;10.82;8.25;;;11.50;99.90;;;;;;5028124;28;20128;-85
2023/10/24 09:17:45;;;;;;;10.00;8.63;;;11.50;99.90;;;;;;5026612;28;20841;-86
2023/10/24 09:20:11;;;;;;;9.13;8.20;;;11.50;99.90;;;;;;5033928;28;20078;-85
2023/10/24 09:22:41;;;;;;;11.00;9.05;;;11.40;99.90;;;;;;5031118;28;20044;-85
2023/10/24 09:25:08;;;;;;;8.52;7.60;;;11.60;99.90;;;;;;5031966;28;20057;-87
2023/10/24 09:27:33;;;;;;;12.43;9.35;;;11.40;99.90;;;;;;5015584;28;20052;-83
2023/10/24 09:30:13;;;;;;;10.95;8.25;;;11.70;99.90;;;;;;5051373;28;20454;-84
2023/10/24 09:32:40;;;;;;;9.65;7.97;;;11.40;99.90;;;;;;5070219;28;20456;-84
2023/10/24 09:35:06;;;;;;;9.68;7.70;;;11.40;99.90;;;;;;5052769;28;20434;-85
2023/10/24 09:37:32;;;;;;;11.38;7.75;;;11.50;99.90;;;;;;5051926;28;20059;-83
2023/10/24 09:39:59;;;;;;;10.23;8.30;;;11.50;99.90;;;;;;5069954;28;20056;-83
2023/10/24 09:42:32;;;;;;;8.95;7.72;;;11.60;99.90;;;;;;5062978;28;20099;-84
2023/10/24 09:44:58;;;;;;;;;;;11.60;99.90;;;;;;5034522;28;20568;-86
2023/10/24 09:47:26;;;;;;;8.38;7.55;;;11.60;99.90;;;;;;5051973;28;19924;-83
2023/10/24 09:49:55;;;;;;;9.30;7.93;;;11.60;99.90;;;;;;5052016;28;20036;-84
2023/10/24 09:52:27;;;;;;;7.75;7.05;;;11.60;99.90;;;;;;5053682;28;20060;-84
2023/10/24 09:54:53;;;;;;;8.25;7.30;;;11.60;99.90;;;;;;5041609;28;20049;-84
2023/10/24 09:57:21;;;;;;;10.95;8.40;;;11.60;99.90;;;;;;5032002;28;20137;-84
2023/10/24 09:59:47;;;;;;;9.75;7.95;;;11.60;99.90;;;;;;5015513;28;20045;-85
2023/10/24 10:02:16;;;;;;;7.70;7.00;;;11.60;99.90;;;;;;5044035;28;20399;-84
2023/10/24 10:04:42;;;;;;;8.25;7.38;;;11.60;99.90;;;;;;5053854;28;20414;-84
2023/10/24 10:07:11;;;;;;;9.82;8.18;;;11.60;99.90;;;;;;5032817;28;20514;-86
2023/10/24 10:09:42;;;;;;;9.38;8.07;;;11.60;99.90;;;;;;5032016;28;20056;-86
2023/10/24 10:12:12;;;;;;;9.10;7.68;;;11.60;99.90;;;;;;5049035;28;20037;-87
2023/10/24 10:14:49;;;;;;;8.48;7.57;;;11.70;99.90;;;;;;5031617;28;20049;-87
2023/10/24 10:17:26;;;;;;;7.88;7.03;;;11.70;99.90;;;;;;5031471;28;20041;-87
2023/10/24 10:20:39;;;;;;;8.65;6.97;;;11.70;99.90;;;;;;5015867;28;20138;-86
2023/10/24 10:23:12;;;;;;;10.50;7.03;;;11.70;99.90;;;;;;4979127;28;20136;-85
2023/10/24 10:26:06;;;;;;;7.60;6.80;;;11.70;99.90;;;;;;5012135;28;20103;-85
2023/10/24 10:28:59;;;;;;;7.82;6.75;;;11.80;99.90;;;;;;5019395;28;20190;-83
2023/10/24 10:31:51;;;;;;;10.15;6.80;;;11.80;99.90;;;;;;5048782;28;20079;-85
2023/10/24 10:34:17;;;;;;;8.63;7.18;;;11.80;99.90;;;;;;5030805;28;20122;-86
2023/10/24 10:36:53;;;;;;;8.95;7.22;;;11.70;99.90;;;;;;5030918;28;20049;-85
2023/10/24 10:39:19;;;;;;;8.98;7.53;;;11.90;99.90;;;;;;5029924;28;20040;-86
2023/10/24 10:41:45;;;;;;;8.82;7.72;;;12.00;99.90;;;;;;5031173;28;20041;-84
2023/10/24 10:44:39;;;;;;;8.23;7.43;;;12.10;99.90;;;;;;5014361;28;20045;-85
2023/10/24 10:47:07;;;;;;;8.63;7.72;;;12.20;99.90;;;;;;5031074;28;20118;-84
2023/10/24 10:49:41;;;;;;;10.02;8.00;;;12.20;99.90;;;;;;5047588;28;20056;-85
2023/10/24 10:52:19;;;;;;;9.45;8.05;;;12.30;99.90;;;;;;5028714;28;20057;-86
2023/10/24 10:54:53;;;;;;;11.15;8.68;;;12.40;99.90;;;;;;5020001;28;20549;-86
2023/10/24 10:57:29;;;;;;;10.70;8.82;;;12.40;99.90;;;;;;5059519;28;20626;-83
2023/10/24 11:00:08;;;;;;;9.55;8.55;;;12.50;99.90;;;;;;5032965;28;20116;-84
2023/10/24 11:02:58;;;;;;;9.07;8.00;;;12.50;99.90;;;;;;5057519;28;20045;-84
2023/10/24 11:05:39;;;;;;;9.80;8.52;;;12.60;99.90;;;;;;5031706;28;20049;-85
2023/10/24 11:08:09;;;;;;;10.43;8.30;;;12.60;99.90;;;;;;5047358;28;20151;-84
2023/10/24 11:10:50;;;;;;;9.07;7.38;;;12.60;99.90;;;;;;5030280;28;20072;-86
2023/10/24 11:13:33;;;;;;;9.98;8.40;;;12.60;99.90;;;;;;5011544;28;20102;-86
2023/10/24 11:16:03;;;;;;;11.98;8.48;;;12.60;99.90;;;;;;5043821;28;20041;-86
2023/10/24 11:18:32;;;;;;;9.20;8.27;;;12.60;99.90;;;;;;5038444;28;20036;-86
2023/10/24 11:20:58;;;;;;;10.23;9.18;;;12.60;99.90;;;;;;5048710;28;20052;-85
2023/10/24 11:23:25;;;;;;;9.50;8.50;;;12.60;99.90;;;;;;5032299;28;20040;-85
2023/10/24 11:25:51;;;;;;;9.50;8.30;;;12.60;99.90;;;;;;5037696;28;20103;-86
2023/10/24 11:28:17;;;;;;;9.82;8.02;;;12.60;99.90;;;;;;5030562;28;20120;-86
2023/10/24 11:30:43;;;;;;;10.07;9.07;;;12.60;99.90;;;;;;5029334;28;20049;-85
2023/10/24 11:33:08;;;;;;;10.48;9.18;;;12.60;99.90;;;;;;5030347;28;20055;-88
2023/10/24 11:35:34;;;;;;;10.70;8.63;;;12.60;99.90;;;;;;5031874;28;20080;-87
2023/10/24 11:38:00;;;;;;;9.50;8.23;;;12.60;99.90;;;;;;5049113;28;20130;-86
2023/10/24 11:40:25;;;;;;;8.77;7.88;;;12.50;99.90;;;;;;5048941;28;20091;-88
2023/10/24 11:42:51;;;;;;;9.40;8.43;;;12.50;99.90;;;;;;5016422;28;20062;-89
2023/10/24 11:45:17;;;;;;;9.85;8.50;;;12.50;99.90;;;;;;5049759;28;20045;-89
2023/10/24 11:47:42;;;;;;;9.70;8.70;;;12.50;99.90;;;;;;5032216;28;20041;-89
2023/10/24 11:50:08;;;;;;;10.75;8.60;;;12.50;99.90;;;;;;5032079;28;20411;-89
2023/10/24 11:52:34;;;;;;;9.27;8.38;;;12.50;99.90;;;;;;5048056;28;20041;-89
2023/10/24 11:55:01;;;;;;;10.50;9.18;;;12.50;99.90;;;;;;5031484;28;20120;-88
2023/10/24 11:57:27;;;;;;;10.90;9.00;;;12.70;99.90;;;;;;5030111;28;20061;-87
2023/10/24 11:59:53;;;;;;;10.50;9.25;;;12.90;99.90;;;;;;5030179;28;20092;-87
2023/10/24 12:02:20;;;;;;;19.08;10.45;;;13.10;99.90;;;;;;5047895;28;20060;-86
2023/10/24 12:04:50;;;;;;;11.43;10.23;;;13.30;99.90;;;;;;5014670;28;20108;-87
2023/10/24 12:07:16;;;;;;;10.65;8.45;;;13.50;99.90;;;;;;5028065;28;20052;-88
2023/10/24 12:09:41;;;;;;;9.10;8.20;;;13.70;99.90;;;;;;5035038;28;20137;-87
2023/10/24 12:12:07;;;;;;;11.27;8.60;;;13.80;99.90;;;;;;5034943;28;20052;-86
2023/10/24 12:14:35;;;;;;;8.88;7.97;;;13.80;99.90;;;;;;5051346;28;20052;-87
2023/10/24 12:17:01;;;;;;;9.20;8.30;;;13.70;99.90;;;;;;5033804;28;20506;-87
2023/10/24 12:19:26;;;;;;;8.93;7.95;;;13.60;99.90;;;;;;5018796;28;20052;-87
2023/10/24 12:21:54;;;;;;;10.13;8.70;;;13.60;99.90;;;;;;5033878;28;20060;-86
2023/10/24 12:24:19;;;;;;;11.25;9.13;;;13.50;99.90;;;;;;5017792;28;20478;-87
2023/10/24 12:26:45;;;;;;;10.10;9.13;;;13.40;99.90;;;;;;5032674;28;20053;-87
2023/10/24 12:29:11;;;;;;;9.50;8.30;;;13.30;99.90;;;;;;5052671;28;20747;-86
2023/10/24 12:31:40;;;;;;;9.63;8.30;;;13.20;99.90;;;;;;5052071;28;20068;-87
2023/10/24 12:34:08;;;;;;;8.82;7.65;;;13.20;99.90;;;;;;5052622;28;20402;-87
2023/10/24 12:36:33;;;;;;;8.27;7.47;;;13.10;99.90;;;;;;5053757;28;20375;-87